Data for 03/23/2007

Time Sea-Level Adjusted Pressure Absolute Pressure Temperature Relative Humidity Dew Point   
(mb) (inHg) (mb) (inHg) (C) (F) (%) (C) (F)
00:05 1015 29.97 844 24.92 9.3 48.8 42 -2.9 26.9
00:10 1015 29.97 844 24.92 9.2 48.6 42 -3.1 26.4
00:15 1015 29.97 844 24.92 9.2 48.5 41 -3.2 26.2
00:20 1015 29.97 844 24.92 9.1 48.4 41 -3.3 26.1
00:25 1015 29.97 844 24.92 9 48.2 43 -2.9 26.8
00:30 1015 29.97 844 24.92 8.4 47.1 48 -2 28.4
00:35 1015 29.97 844 24.92 8 46.4 44 -3.5 25.7
00:40 1015 29.97 844 24.92 8.4 47.2 42 -3.7 25.3
00:45 1015 29.97 844 24.92 8.7 47.6 42 -3.5 25.7
00:50 1015 29.97 844 24.92 8.6 47.5 41 -3.8 25.2
00:55 1015 29.97 844 24.92 8.7 47.6 41 -3.8 25.2
01:00 1015 29.97 844 24.92 8.7 47.6 41 -3.7 25.4
01:05 1015 29.97 844 24.92 8.7 47.7 42 -3.4 25.8
01:10 1015 29.97 844 24.92 8.7 47.7 42 -3.3 26
01:15 1015 29.97 844 24.92 8.8 47.8 44 -2.7 27.1
01:20 1015 29.97 844 24.92 8.8 47.8 45 -2.5 27.4
01:25 1015 29.97 844 24.92 8.7 47.7 45 -2.5 27.4
01:30 1015 29.97 844 24.92 8.6 47.5 46 -2.2 28.1
01:35 1015 29.97 844 24.92 8.6 47.5 48 -1.9 28.6
01:40 1015 29.97 844 24.92 8.7 47.6 47 -1.9 28.6
01:45 1015 29.97 844 24.92 8.6 47.5 48 -1.7 29
01:50 1015 29.97 844 24.92 8.5 47.4 49 -1.5 29.4
01:55 1015 29.97 844 24.92 8.4 47.1 50 -1.5 29.3
02:00 1015 29.97 844 24.92 8.3 46.9 49 -1.7 28.9
02:05 1015 29.97 844 24.92 8.2 46.8 48 -2 28.4
02:10 1015 29.97 844 24.92 8.3 46.9 48 -2 28.4
02:15 1015 29.97 844 24.92 8.3 46.9 49 -1.9 28.7
02:20 1015 29.97 844 24.92 8.3 47 49 -1.8 28.7
02:25 1015 29.97 844 24.92 8.3 47 48 -2 28.4
02:30 1015 29.97 844 24.92 8.3 46.9 48 -2 28.5
02:35 1015 29.97 844 24.92 8.2 46.8 49 -1.7 28.9
02:40 1015 29.97 844 24.92 8.1 46.5 50 -1.7 28.9
02:45 1015 29.97 844 24.92 7.9 46.2 51 -1.5 29.2
02:50 1015 29.97 844 24.92 7.7 45.9 52 -1.5 29.3
02:55 1015 29.97 844 24.92 7.7 45.8 52 -1.5 29.3
03:00 1015 29.97 844 24.92 7.7 45.8 53 -1.3 29.6
03:05 1015 29.97 844 24.92 7.5 45.6 53 -1.3 29.7
03:10 1015 29.97 844 24.92 7.5 45.4 54 -1.3 29.7
03:15 1015 29.97 844 24.92 7.4 45.4 54 -1.3 29.7
03:20 1015 29.97 844 24.92 7.5 45.4 53 -1.5 29.3
03:25 1015 29.97 844 24.92 7.5 45.6 53 -1.3 29.6
03:30 1015 29.97 844 24.92 7.5 45.5 52 -1.6 29.2
03:35 1015 29.97 844 24.92 7.6 45.7 53 -1.5 29.3
03:40 1015 29.97 844 24.92 7.6 45.6 53 -1.5 29.3
03:45 1015 29.97 844 24.92 7.6 45.6 52 -1.6 29.2
03:50 1015 29.97 844 24.92 7.6 45.7 52 -1.5 29.3
03:55 1015 29.97 844 24.92 7.5 45.5 54 -1.3 29.7
04:00 1015 29.97 844 24.92 7.4 45.3 54 -1.2 29.8
04:05 1015 29.97 844 24.92 7.3 45.1 55 -1 30.1
04:10 1015 29.97 844 24.92 7.2 44.9 55 -1.2 29.9
04:15 1015 29.97 844 24.92 7.1 44.8 55 -1.2 29.8
04:20 1015 29.97 844 24.92 7.2 44.9 55 -1.2 29.9
04:25 1015 29.97 844 24.92 7.2 44.9 55 -1.2 29.9
04:30 1015 29.97 844 24.92 7.2 44.9 55 -1.1 29.9
04:35 1015 29.97 844 24.92 7.1 44.8 56 -1.2 29.9
04:40 1015 29.97 844 24.92 7 44.7 56 -1.1 30
04:45 1015 29.97 844 24.92 7 44.6 56 -1.2 29.9
04:50 1015 29.97 844 24.92 7.2 45 55 -1.1 30.1
04:55 1015 29.97 844 24.92 7.3 45.2 55 -1 30.1
05:00 1015 29.97 844 24.92 7.4 45.4 55 -0.9 30.4
05:05 1015 29.97 844 24.92 7.4 45.4 56 -0.8 30.6
05:10 1015 29.97 844 24.92 7.3 45.2 56 -0.7 30.7
05:15 1015 29.97 844 24.92 7.3 45.1 56 -0.9 30.4
05:20 1015 29.97 844 24.92 7.2 44.9 56 -0.9 30.3
05:25 1015 29.97 844 24.92 7.2 44.9 56 -0.9 30.4
05:30 1015 29.97 844 24.92 7.2 44.9 57 -0.9 30.4
05:35 1015 29.97 844 24.92 7.1 44.8 56 -1 30.2
05:40 1015 29.97 844 24.92 7.2 44.9 56 -0.9 30.4
05:45 1015 29.97 845 24.95 7.1 44.8 57 -0.9 30.4
05:50 1015 29.97 845 24.95 7.1 44.8 57 -0.9 30.5
05:55 1015 29.97 845 24.95 7.1 44.7 57 -0.9 30.4
06:00 1016 30 845 24.95 7.1 44.8 57 -0.9 30.5
06:05 1016 30 845 24.95 7.1 44.8 57 -0.8 30.5
06:10 1016 30 845 24.95 7.2 44.9 56 -0.9 30.4
06:15 1016 30 845 24.95 7.2 44.9 56 -1 30.3
06:20 1016 30 845 24.95 7.3 45.1 55 -1.1 30.1
06:25 1016 30 845 24.95 7.3 45.2 55 -1 30.3
06:30 1016 30 845 24.95 7.3 45.1 56 -0.9 30.4
06:35 1016 30 845 24.95 7.3 45.1 56 -0.9 30.4
06:40 1016 30 845 24.95 7.3 45.1 56 -0.9 30.3
06:45 1016 30 845 24.95 7.3 45.2 56 -0.9 30.3
06:50 1016 30 845 24.95 7.4 45.3 56 -0.8 30.5
06:55 1016 30 845 24.95 7.4 45.2 56 -0.7 30.7
07:00 1016 30 845 24.95 7.2 45 57 -0.8 30.6
07:05 1016 30 845 24.95 7.2 45 57 -0.6 30.9
07:10 1016 30 846 24.98 7.1 44.8 58 -0.6 30.9
07:15 1016 30 846 24.98 7.1 44.7 58 -0.6 30.9
07:20 1017 30.03 846 24.98 7.1 44.7 58 -0.6 31
07:25 1017 30.03 846 24.98 7.1 44.7 59 -0.3 31.5
07:30 1017 30.03 846 24.98 7 44.7 59 -0.3 31.4
07:35 1017 30.03 846 24.98 7 44.6 60 -0.2 31.7
07:40 1017 30.03 846 24.98 6.8 44.3 61 -0.2 31.7
07:45 1017 30.03 846 24.98 6.9 44.3 61 -0.1 31.8
07:50 1017 30.03 846 24.98 6.9 44.4 61 -0.1 31.8
07:55 1017 30.03 846 24.98 6.9 44.4 61 -0.2 31.7
08:00 1017 30.03 846 24.98 6.8 44.3 61 -0.1 31.8
08:05 1017 30.03 846 24.98 6.9 44.4 61 -0.1 31.7
08:10 1017 30.03 847 25.01 6.9 44.4 61 -0.2 31.7
08:15 1017 30.03 847 25.01 7 44.5 61 -0.1 31.9
08:20 1017 30.03 847 25.01 7.1 44.8 60 -0 31.9
08:25 1017 30.03 847 25.01 7.1 44.9 61 0.1 32.2
08:30 1017 30.03 847 25.01 6.9 44.4 62 0.2 32.3
08:35 1018 30.06 847 25.01 6.5 43.7 64 0.1 32.2
08:40 1018 30.06 847 25.01 6.6 43.9 62 -0.1 31.8
08:45 1017 30.03 847 25.01 6.7 44.1 63 0.2 32.4
08:50 1018 30.06 847 25.01 6.9 44.4 63 0.3 32.5
08:55 1018 30.06 847 25.01 7.1 44.8 62 0.2 32.4
09:00 1018 30.06 847 25.01 7.2 45 60 0 32.1
09:05 1018 30.06 847 25.01 7.3 45.2 59 -0.1 31.8
09:10 1018 30.06 847 25.01 7.6 45.8 57 -0.3 31.4
09:15 1018 30.06 847 25.01 7.9 46.3 56 -0.3 31.4
09:20 1018 30.06 847 25.01 8.3 46.9 55 -0.3 31.5
09:25 1018 30.06 847 25.01 8.4 47.1 56 0.1 32.1
09:30 1018 30.06 847 25.01 8.2 46.8 55 -0.1 31.7
09:35 1018 30.06 847 25.01 8.2 46.7 55 -0.2 31.7
09:40 1018 30.06 847 25.01 8.3 46.9 55 -0.2 31.6
09:45 1018 30.06 848 25.04 8.4 47.1 55 -0.1 31.8
09:50 1018 30.06 848 25.04 8.5 47.2 57 0.4 32.6
09:55 1018 30.06 848 25.04 8.6 47.4 57 0.6 33
10:00 1018 30.06 848 25.04 8.5 47.3 60 1.1 34
10:05 1019 30.09 848 25.04 8.6 47.5 57 0.5 33
10:10 1019 30.09 848 25.04 8.8 47.8 56 0.6 33.1
10:15 1019 30.09 848 25.04 9 48.2 53 0.1 32.1
10:20 1019 30.09 848 25.04 9.8 49.7 49 -0.4 31.3
10:25 1019 30.09 848 25.04 9.8 49.7 50 -0.2 31.7
10:30 1019 30.09 848 25.04 9.3 48.8 51 -0.2 31.6
10:35 1019 30.09 848 25.04 9 48.1 52 -0.3 31.4
10:40 1019 30.09 848 25.04 9 48.1 52 -0.4 31.2
10:45 1019 30.09 848 25.04 9.2 48.5 50 -0.6 31
10:50 1019 30.09 848 25.04 9.2 48.6 50 -0.6 30.9
10:55 1019 30.09 848 25.04 9.2 48.5 51 -0.4 31.3
11:00 1019 30.09 848 25.04 9.2 48.5 51 -0.3 31.5
11:05 1019 30.09 848 25.04 9 48.3 52 -0.3 31.4
11:10 1019 30.09 848 25.04 9.3 48.8 50 -0.5 31.1
11:15 1019 30.09 848 25.04 9.5 49.1 49 -0.8 30.6
11:20 1019 30.09 848 25.04 10 50 47 -0.7 30.7
11:25 1019 30.09 848 25.04 10.1 50.2 47 -0.6 31
11:30 1019 30.09 848 25.04 10.2 50.3 47 -0.7 30.8
11:35 1019 30.09 848 25.04 9.8 49.6 46 -1.2 29.9
11:40 1019 30.09 848 25.04 10.6 51 44 -1.2 29.8
11:45 1019 30.09 848 25.04 11.1 52 43 -1 30.3
11:50 1019 30.09 848 25.04 11.2 52.2 44 -0.6 30.9
11:55 1019 30.09 848 25.04 11.3 52.3 42 -1.2 29.9
12:00 1019 30.09 848 25.04 11.7 53.1 42 -0.6 30.9
12:05 1019 30.09 848 25.04 11 51.8 44 -0.6 30.9
12:10 1019 30.09 848 25.04 10.5 50.9 45 -0.9 30.3
12:15 1019 30.09 848 25.04 11.1 52 42 -1.2 29.9
12:20 1019 30.09 848 25.04 11.7 53.1 41 -1.1 30.1
12:25 1019 30.09 848 25.04 10.9 51.7 43 -1.1 30.1
12:30 1019 30.09 848 25.04 11 51.8 41 -1.6 29.1
12:35 1019 30.09 848 25.04 11.9 53.3 40 -1.2 29.8
12:40 1019 30.09 848 25.04 12.7 54.9 38 -1.1 30
12:45 1019 30.09 848 25.04 12.2 53.9 41 -0.8 30.6
12:50 1019 30.09 848 25.04 11.4 52.5 42 -1.1 30
12:55 1019 30.09 848 25.04 11.6 52.9 39 -1.7 29
13:00 1019 30.09 848 25.04 12 53.5 39 -1.4 29.5
13:05 1019 30.09 848 25.04 11.9 53.3 39 -1.8 28.8
13:10 1019 30.09 848 25.04 11.8 53.2 39 -1.6 29.2
13:15 1019 30.09 848 25.04 11.8 53.3 40 -1.5 29.4
13:20 1019 30.09 848 25.04 12.2 54 36 -2.4 27.6
13:25 1019 30.09 848 25.04 13.2 55.7 32 -2.9 26.8
13:30 1019 30.09 848 25.04 13.3 55.9 33 -2.6 27.4
13:35 1019 30.09 848 25.04 13.9 57.1 32 -2.6 27.3
13:40 1019 30.09 848 25.04 14 57.1 31 -2.8 27
13:45 1019 30.09 848 25.04 13.7 56.7 30 -3.4 25.9
13:50 1019 30.09 848 25.04 14.2 57.5 30 -3.3 26.1
13:55 1019 30.09 848 25.04 14.3 57.7 29 -3.5 25.7
14:00 1018 30.06 848 25.04 14.5 58.1 29 -3.4 25.9
14:05 1018 30.06 848 25.04 14.5 58.1 29 -3.3 26
14:10 1018 30.06 848 25.04 14 57.1 31 -2.7 27.2
14:15 1018 30.06 848 25.04 14.2 57.6 30 -3 26.7
14:20 1018 30.06 848 25.04 14.6 58.3 31 -2.1 28.2
14:25 1018 30.06 848 25.04 14.4 57.8 30 -2.9 26.8
14:30 1018 30.06 848 25.04 14.5 58.1 27 -4.1 24.6
14:35 1018 30.06 848 25.04 14.7 58.4 29 -3.2 26.2
14:40 1018 30.06 847 25.01 14.3 57.8 30 -2.8 27
14:45 1018 30.06 847 25.01 14.1 57.4 30 -3.1 26.3
14:50 1018 30.06 847 25.01 14.6 58.2 28 -3.6 25.5
14:55 1018 30.06 847 25.01 14.5 58 28 -3.6 25.5
15:00 1018 30.06 847 25.01 14.4 58 28 -3.6 25.5
15:05 1018 30.06 847 25.01 15 58.9 28 -3.4 25.9
15:10 1018 30.06 847 25.01 15.2 59.3 27 -3.8 25.2
15:15 1018 30.06 847 25.01 13.9 57 29 -3.7 25.3
15:20 1018 30.06 847 25.01 13.9 57 29 -4 24.9
15:25 1018 30.06 847 25.01 14 57.3 27 -4.6 23.7
15:30 1018 30.06 847 25.01 14.7 58.4 25 -4.9 23.2
15:35 1018 30.06 847 25.01 14.7 58.5 26 -4.5 23.9
15:40 1018 30.06 847 25.01 14.5 58.1 27 -4.4 24.1
15:45 1018 30.06 847 25.01 13.9 56.9 27 -5 23.1
15:50 1018 30.06 847 25.01 14.5 58.1 26 -4.7 23.5
15:55 1018 30.06 847 25.01 15.1 59.1 25 -4.8 23.4
16:00 1018 30.06 847 25.01 14.5 58.1 25 -5 23
16:05 1018 30.06 847 25.01 14.7 58.5 24 -5.5 22.2
16:10 1018 30.06 847 25.01 15.4 59.6 24 -5.1 22.7
16:15 1018 30.06 847 25.01 15.6 60.1 24 -4.8 23.3
16:20 1018 30.06 847 25.01 15.5 59.8 24 -5.2 22.7
16:25 1018 30.06 847 25.01 15.4 59.6 23 -5.3 22.4
16:30 1018 30.06 847 25.01 15.2 59.4 23 -5.5 22.1
16:35 1018 30.06 847 25.01 14.7 58.5 25 -5.3 22.5
16:40 1018 30.06 847 25.01 14.7 58.4 24 -5.6 21.9
16:45 1018 30.06 847 25.01 15.6 60.1 23 -5.4 22.3
16:50 1018 30.06 847 25.01 15.3 59.6 24 -5.1 22.8
16:55 1018 30.06 847 25.01 15.3 59.5 24 -5.3 22.5
17:00 1018 30.06 847 25.01 15.3 59.6 23 -5.4 22.2
17:05 1018 30.06 847 25.01 15.3 59.5 24 -4.9 23.1
17:10 1018 30.06 847 25.01 15.5 59.8 22 -6 21.1
17:15 1018 30.06 847 25.01 15.4 59.8 22 -6.3 20.7
17:20 1018 30.06 847 25.01 15.6 60 22 -5.8 21.6
17:25 1018 30.06 847 25.01 15 59 23 -5.7 21.8
17:30 1018 30.06 847 25.01 15.1 59.1 23 -5.8 21.5
17:35 1018 30.06 847 25.01 15.1 59.3 23 -5.6 22
17:40 1018 30.06 847 25.01 15.1 59.2 23 -6 21.2
17:45 1018 30.06 847 25.01 15.2 59.3 24 -5.1 22.7
17:50 1018 30.06 847 25.01 14.8 58.6 25 -5.2 22.7
17:55 1018 30.06 847 25.01 15 59 24 -5.5 22.1
18:00 1018 30.06 847 25.01 15.1 59.1 24 -5.5 22.2
18:05 1018 30.06 847 25.01 15 59 24 -5.3 22.4
18:10 1018 30.06 847 25.01 14.9 58.8 24 -5.5 22
18:15 1018 30.06 847 25.01 14.7 58.4 23 -6 21.3
18:20 1018 30.06 847 25.01 14.6 58.3 23 -6 21.3
18:25 1018 30.06 847 25.01 14.7 58.4 23 -5.9 21.3
18:30 1018 30.06 847 25.01 14.7 58.5 23 -5.9 21.4
18:35 1018 30.06 847 25.01 14.8 58.6 24 -5.7 21.7
18:40 1018 30.06 847 25.01 14.1 57.3 24 -5.9 21.4
18:45 1018 30.06 847 25.01 13.6 56.5 25 -6.1 21.1
18:50 1018 30.06 847 25.01 13.4 56.2 26 -5.8 21.5
18:55 1018 30.06 847 25.01 13.5 56.4 26 -5.7 21.8
19:00 1018 30.06 847 25.01 13.4 56.2 25 -6 21.1
19:05 1018 30.06 847 25.01 13 55.3 27 -5.8 21.6
19:10 1018 30.06 847 25.01 12.5 54.4 27 -5.9 21.5
19:15 1018 30.06 847 25.01 12.3 54.1 27 -6.1 21
19:20 1018 30.06 847 25.01 12.3 54.1 28 -5.9 21.4
19:25 1018 30.06 847 25.01 12.2 54 27 -6.1 21
19:30 1018 30.06 847 25.01 12.2 53.9 27 -6.2 20.9
19:35 1018 30.06 847 25.01 12.2 53.9 27 -6.1 21
19:40 1018 30.06 847 25.01 12 53.6 28 -5.9 21.3
19:45 1018 30.06 847 25.01 11.9 53.4 28 -6 21.2
19:50 1018 30.06 847 25.01 11.7 53 29 -5.8 21.6
19:55 1018 30.06 847 25.01 11.5 52.7 30 -5.6 22
20:00 1018 30.06 847 25.01 11.3 52.3 30 -5.6 22
20:05 1018 30.06 847 25.01 10.9 51.6 34 -4.3 24.3
20:10 1018 30.06 847 25.01 10 50.1 38 -3.7 25.4
20:15 1018 30.06 847 25.01 9.2 48.5 41 -3.3 26.1
20:20 1018 30.06 847 25.01 8.4 47.2 43 -3.3 26.1
20:25 1018 30.06 847 25.01 8.1 46.5 44 -3.3 26
20:30 1018 30.06 847 25.01 7.9 46.1 45 -3.3 26.1
20:35 1018 30.06 847 25.01 7.7 45.9 45 -3.5 25.7
20:40 1018 30.06 847 25.01 7.6 45.6 45 -3.5 25.7
20:45 1018 30.06 847 25.01 7.4 45.3 46 -3.6 25.6
20:50 1018 30.06 847 25.01 7.3 45.1 46 -3.5 25.6
20:55 1018 30.06 848 25.04 7.1 44.7 47 -3.4 25.8
21:00 1018 30.06 848 25.04 6.6 43.9 48 -3.5 25.7
21:05 1018 30.06 848 25.04 6.3 43.3 49 -3.6 25.5
21:10 1018 30.06 848 25.04 6.2 43.1 50 -3.4 25.9
21:15 1019 30.09 848 25.04 6.1 43 50 -3.4 25.8
21:20 1019 30.09 848 25.04 6.1 42.9 49 -3.7 25.3
21:25 1018 30.06 848 25.04 6.2 43.1 50 -3.6 25.5
21:30 1018 30.06 848 25.04 5.8 42.4 52 -3.4 25.8
21:35 1018 30.06 848 25.04 5.7 42.3 50 -4 24.9
21:40 1018 30.06 848 25.04 6.2 43.1 48 -4.1 24.7
21:45 1018 30.06 848 25.04 6.1 43 48 -4.1 24.6
21:50 1018 30.06 848 25.04 6 42.7 49 -3.9 25
21:55 1018 30.06 848 25.04 5.8 42.5 50 -3.9 25
22:00 1018 30.06 848 25.04 5.7 42.2 51 -3.8 25.2
22:05 1018 30.06 848 25.04 5.5 42 50 -3.9 24.9
22:10 1018 30.06 848 25.04 5.5 41.9 51 -3.9 25.1
22:15 1018 30.06 848 25.04 5.8 42.4 50 -3.9 24.9
22:20 1019 30.09 848 25.04 5.7 42.3 51 -3.7 25.3
22:25 1019 30.09 848 25.04 5.5 41.9 51 -3.9 24.9
22:30 1019 30.09 848 25.04 5.5 41.9 51 -3.9 25
22:35 1019 30.09 848 25.04 5.2 41.4 53 -3.6 25.5
22:40 1019 30.09 848 25.04 4.8 40.7 53 -3.8 25.1
22:45 1018 30.06 848 25.04 4.5 40.1 55 -3.7 25.3
22:50 1018 30.06 848 25.04 4.4 39.8 56 -3.8 25.2
22:55 1019 30.09 848 25.04 4.4 39.9 56 -3.7 25.3
23:00 1019 30.09 848 25.04 4.4 39.8 55 -3.8 25.1
23:05 1019 30.09 848 25.04 4.3 39.7 56 -3.7 25.3
23:10 1019 30.09 848 25.04 4.2 39.5 57 -3.6 25.4
23:15 1019 30.09 848 25.04 4.3 39.8 55 -4 24.7
23:20 1018 30.06 848 25.04 4.8 40.7 53 -3.9 24.9
23:25 1018 30.06 848 25.04 4.9 40.8 52 -4.2 24.5
23:30 1018 30.06 848 25.04 5.2 41.4 52 -3.7 25.3
23:35 1018 30.06 848 25.04 4.7 40.5 54 -3.8 25.2
23:40 1018 30.06 848 25.04 4.4 39.9 55 -3.8 25.2
23:45 1018 30.06 848 25.04 4.4 39.9 55 -3.9 24.9
23:50 1018 30.06 848 25.04 4.4 40 54 -3.9 24.9
23:55 1018 30.06 848 25.04 4.4 40 54 -4 24.7
24:00 1018 30.06 848 25.04 4.4 39.9 54 -4 24.7